Time,TemperatureF,DewpointF,PressureIn,WindDirection,WindDirectionDegrees,WindSpeedMPH,WindSpeedGustMPH,Humidity,HourlyPrecipIn,Conditions,Clouds,dailyrainin,SoftwareType,DateUTC
2013-08-16 00:00:00,54.5,53.7,29.64,SSE,154,2.0,2.0,97,0.00,,---,0.00,VWS V14.01,2013-08-16 04:00:00,
2013-08-16 00:01:00,54.5,53.7,29.63,SSE,154,0.0,2.0,97,0.00,,---,0.00,VWS V14.01,2013-08-16 04:01:00,
2013-08-16 00:06:00,54.3,53.8,29.63,SSE,154,1.0,3.0,98,0.00,,---,0.00,VWS V14.01,2013-08-16 04:06:00,
2013-08-16 00:11:00,54.2,53.7,29.63,SSE,154,1.0,3.0,98,0.00,,---,0.00,VWS V14.01,2013-08-16 04:11:00,
2013-08-16 00:16:00,54.1,53.5,29.64,SSE,153,0.0,3.0,98,0.00,,---,0.00,VWS V14.01,2013-08-16 04:16:00,
2013-08-16 00:22:00,53.5,52.7,29.64,SSE,148,0.0,3.0,97,0.00,,---,0.00,VWS V14.01,2013-08-16 04:22:00,
2013-08-16 00:26:00,53.1,52.3,29.64,SSE,148,0.0,3.0,97,0.00,,---,0.00,VWS V14.01,2013-08-16 04:26:00,
2013-08-16 00:30:00,55.5,54.4,29.63,SSE,157,2.0,5.0,96,0.00,,---,0.00,VWS V14.01,2013-08-16 04:30:00,
2013-08-16 00:31:00,52.9,52.3,29.64,SSE,147,0.0,2.0,98,0.00,,---,0.00,VWS V14.01,2013-08-16 04:31:00,
2013-08-16 00:36:00,52.3,51.8,29.64,SSE,147,0.0,2.0,98,0.00,,---,0.00,VWS V14.01,2013-08-16 04:36:00,
2013-08-16 00:41:00,52.1,51.5,29.64,SSE,147,0.0,2.0,98,0.00,,---,0.00,VWS V14.01,2013-08-16 04:41:00,
2013-08-16 00:46:00,52.1,51.8,29.63,SSE,147,0.0,2.0,99,0.00,,---,0.00,VWS V14.01,2013-08-16 04:46:00,
2013-08-16 00:52:00,51.7,51.4,29.64,SSE,147,0.0,2.0,99,0.00,,---,0.00,VWS V14.01,2013-08-16 04:52:00,
2013-08-16 00:57:00,51.1,50.6,29.64,SE,146,0.0,2.0,98,0.00,,---,0.00,VWS V14.01,2013-08-16 04:57:00,
2013-08-16 01:00:00,54.5,53.7,29.64,SSE,154,1.0,4.0,97,0.00,,---,0.00,VWS V14.01,2013-08-16 05:00:00,
2013-08-16 01:02:00,50.9,50.6,29.64,SE,146,0.0,0.0,99,0.00,,---,0.00,VWS V14.01,2013-08-16 05:02:00,
2013-08-16 01:07:00,50.8,50.8,29.64,SE,146,0.0,0.0,100,0.00,,---,0.00,VWS V14.01,2013-08-16 05:07:00,
2013-08-16 01:12:00,50.8,50.8,29.64,SE,142,0.0,0.0,100,0.00,,---,0.00,VWS V14.01,2013-08-16 05:12:00,
2013-08-16 01:19:00,50.6,50.6,29.64,SSE,154,0.0,1.0,100,0.00,,---,0.00,VWS V14.01,2013-08-16 05:19:00,
2013-08-16 01:24:00,50.7,50.7,29.64,SSE,154,0.0,2.0,100,0.00,,---,0.00,VWS V14.01,2013-08-16 05:24:00,
2013-08-16 01:29:00,50.5,50.5,29.64,SSE,154,0.0,2.0,100,0.00,,---,0.00,VWS V14.01,2013-08-16 05:29:00,
2013-08-16 01:30:00,53.0,52.5,29.64,SSE,148,1.0,3.0,98,0.00,,---,0.00,VWS V14.01,2013-08-16 05:30:00,
2013-08-16 01:34:00,50.3,50.3,29.64,SSE,154,0.0,1.0,100,0.00,,---,0.00,VWS V14.01,2013-08-16 05:34:00,
2013-08-16 01:39:00,50.4,50.4,29.64,SSE,154,0.0,2.0,100,0.00,,---,0.00,VWS V14.01,2013-08-16 05:39:00,
2013-08-16 01:44:00,50.4,50.4,29.64,SSE,154,0.0,2.0,100,0.00,,---,0.00,VWS V14.01,2013-08-16 05:44:00,
2013-08-16 01:49:00,50.4,50.4,29.64,SSE,154,0.0,2.0,100,0.00,,---,0.00,VWS V14.01,2013-08-16 05:49:00,
2013-08-16 01:54:00,50.4,50.4,29.64,SSE,154,0.0,2.0,100,0.00,,---,0.00,VWS V14.01,2013-08-16 05:54:00,
2013-08-16 01:59:00,50.6,50.6,29.64,SSE,154,0.0,2.0,100,0.00,,---,0.00,VWS V14.01,2013-08-16 05:59:00,
2013-08-16 02:00:00,50.9,50.4,29.64,SE,146,0.0,2.0,98,0.00,,---,0.00,VWS V14.01,2013-08-16 06:00:00,
2013-08-16 02:04:00,50.6,50.6,29.64,SSE,154,0.0,1.0,100,0.00,,---,0.00,VWS V14.01,2013-08-16 06:04:00,
2013-08-16 02:09:00,50.8,50.8,29.64,SSE,154,1.0,2.0,100,0.00,,---,0.00,VWS V14.01,2013-08-16 06:09:00,
2013-08-16 02:14:00,50.8,50.8,29.64,SSE,154,0.0,2.0,100,0.00,,---,0.00,VWS V14.01,2013-08-16 06:14:00,
2013-08-16 02:19:00,50.8,50.8,29.64,SSE,154,0.0,2.0,100,0.00,,---,0.00,VWS V14.01,2013-08-16 06:19:00,
2013-08-16 02:24:00,50.6,50.6,29.64,SSE,154,0.0,2.0,100,0.00,,---,0.00,VWS V14.01,2013-08-16 06:24:00,
2013-08-16 02:30:00,50.6,50.6,29.64,SSE,154,0.0,3.0,100,0.00,,---,0.00,VWS V14.01,2013-08-16 06:30:00,
2013-08-16 02:35:00,50.5,50.5,29.64,SSE,154,0.0,2.0,100,0.00,,---,0.00,VWS V14.01,2013-08-16 06:35:00,
2013-08-16 02:40:00,50.3,50.3,29.64,SSE,154,0.0,2.0,100,0.00,,---,0.00,VWS V14.01,2013-08-16 06:40:00,
2013-08-16 02:45:00,50.2,50.2,29.64,SSE,154,0.0,2.0,100,0.00,,---,0.00,VWS V14.01,2013-08-16 06:45:00,
2013-08-16 02:50:00,50.2,50.2,29.64,SSE,154,0.0,2.0,100,0.00,,---,0.00,VWS V14.01,2013-08-16 06:50:00,
2013-08-16 02:55:00,50.0,50.0,29.64,SSE,153,0.0,2.0,100,0.00,,---,0.00,VWS V14.01,2013-08-16 06:55:00,
2013-08-16 03:00:00,49.8,49.8,29.63,SSE,153,1.0,2.0,100,0.00,,---,0.00,VWS V14.01,2013-08-16 07:00:00,
2013-08-16 03:05:00,49.6,49.6,29.64,SSE,153,2.0,3.0,100,0.00,,---,0.00,VWS V14.01,2013-08-16 07:05:00,
2013-08-16 03:10:00,49.6,49.6,29.63,SSE,153,0.0,3.0,100,0.00,,---,0.00,VWS V14.01,2013-08-16 07:10:00,
2013-08-16 03:15:00,49.6,49.6,29.64,SSE,153,1.0,3.0,100,0.00,,---,0.00,VWS V14.01,2013-08-16 07:15:00,
2013-08-16 03:20:00,49.9,49.9,29.64,SSE,153,1.0,3.0,100,0.00,,---,0.00,VWS V14.01,2013-08-16 07:20:00,
2013-08-16 03:25:00,50.0,50.0,29.63,SSE,153,1.0,3.0,100,0.00,,---,0.00,VWS V14.01,2013-08-16 07:25:00,
2013-08-16 03:30:00,49.9,49.9,29.64,SSE,153,0.0,1.0,100,0.00,,---,0.00,VWS V14.01,2013-08-16 07:30:00,
2013-08-16 03:35:00,49.6,49.6,29.64,SSE,152,0.0,1.0,100,0.00,,---,0.00,VWS V14.01,2013-08-16 07:35:00,
2013-08-16 03:40:00,49.5,49.5,29.64,SSE,155,0.0,1.0,100,0.00,,---,0.00,VWS V14.01,2013-08-16 07:40:00,
2013-08-16 03:45:00,49.3,49.3,29.64,SSE,155,0.0,1.0,100,0.00,,---,0.00,VWS V14.01,2013-08-16 07:45:00,
2013-08-16 03:50:00,49.0,49.0,29.64,SSE,155,0.0,1.0,100,0.00,,---,0.00,VWS V14.01,2013-08-16 07:50:00,
2013-08-16 03:55:00,49.0,49.0,29.64,SSE,155,0.0,1.0,100,0.00,,---,0.00,VWS V14.01,2013-08-16 07:55:00,
2013-08-16 04:00:00,48.9,48.9,29.64,SSE,155,1.0,1.0,100,0.00,,---,0.00,VWS V14.01,2013-08-16 08:00:00,
2013-08-16 04:05:00,48.7,48.7,29.64,SSE,155,0.0,2.0,100,0.00,,---,0.00,VWS V14.01,2013-08-16 08:05:00,
2013-08-16 04:10:00,48.5,48.5,29.64,SSE,154,2.0,3.0,100,0.00,,---,0.00,VWS V14.01,2013-08-16 08:10:00,
2013-08-16 04:15:00,48.7,48.7,29.64,SSE,155,3.0,3.0,100,0.00,,---,0.00,VWS V14.01,2013-08-16 08:15:00,
2013-08-16 04:20:00,48.9,48.9,29.64,SSE,155,1.0,3.0,100,0.00,,---,0.00,VWS V14.01,2013-08-16 08:20:00,
2013-08-16 04:25:00,48.7,48.7,29.64,SSE,155,2.0,3.0,100,0.00,,---,0.00,VWS V14.01,2013-08-16 08:25:00,
2013-08-16 04:30:00,48.6,48.6,29.64,SSE,155,1.0,2.0,100,0.00,,---,0.00,VWS V14.01,2013-08-16 08:30:00,
2013-08-16 04:35:00,48.7,48.7,29.64,SSE,155,1.0,3.0,100,0.00,,---,0.00,VWS V14.01,2013-08-16 08:35:00,
2013-08-16 04:40:00,48.8,48.8,29.64,SSE,154,0.0,3.0,100,0.00,,---,0.00,VWS V14.01,2013-08-16 08:40:00,
2013-08-16 04:45:00,48.6,48.6,29.64,SSE,154,2.0,3.0,100,0.00,,---,0.00,VWS V14.01,2013-08-16 08:45:00,
2013-08-16 04:50:00,48.6,48.6,29.64,SSE,155,1.0,3.0,100,0.00,,---,0.00,VWS V14.01,2013-08-16 08:50:00,
2013-08-16 04:55:00,48.5,48.5,29.64,SSE,154,0.0,3.0,100,0.00,,---,0.00,VWS V14.01,2013-08-16 08:55:00,
2013-08-16 05:00:00,48.9,48.9,29.64,SSE,155,0.0,2.0,100,0.00,,---,0.00,VWS V14.01,2013-08-16 09:00:00,
2013-08-16 05:01:00,48.4,48.4,29.64,SSE,155,1.0,3.0,100,0.00,,---,0.00,VWS V14.01,2013-08-16 09:01:00,
2013-08-16 05:06:00,48.5,48.5,29.64,SSE,154,0.0,3.0,100,0.00,,---,0.00,VWS V14.01,2013-08-16 09:06:00,
2013-08-16 05:11:00,48.2,48.2,29.64,SSE,154,0.0,3.0,100,0.00,,---,0.00,VWS V14.01,2013-08-16 09:11:00,
2013-08-16 05:16:00,48.0,48.0,29.64,SSE,154,1.0,3.0,100,0.00,,---,0.00,VWS V14.01,2013-08-16 09:16:00,
2013-08-16 05:21:00,47.5,47.5,29.65,SSE,154,1.0,3.0,100,0.00,,---,0.00,VWS V14.01,2013-08-16 09:21:00,
2013-08-16 05:26:00,47.3,47.3,29.65,SSE,154,1.0,3.0,100,0.00,,---,0.00,VWS V14.01,2013-08-16 09:26:00,
2013-08-16 05:30:00,48.7,48.7,29.64,SSE,155,0.0,3.0,100,0.00,,---,0.00,VWS V14.01,2013-08-16 09:30:00,
2013-08-16 05:31:00,47.1,47.1,29.65,SSE,154,0.0,0.0,100,0.00,,---,0.00,VWS V14.01,2013-08-16 09:31:00,
2013-08-16 05:36:00,47.1,47.1,29.65,SSE,154,0.0,3.0,100,0.00,,---,0.00,VWS V14.01,2013-08-16 09:36:00,
2013-08-16 05:41:00,47.4,47.4,29.65,SSE,154,1.0,3.0,100,0.00,,---,0.00,VWS V14.01,2013-08-16 09:41:00,
2013-08-16 05:46:00,47.8,47.8,29.65,SSE,154,0.0,3.0,100,0.00,,---,0.00,VWS V14.01,2013-08-16 09:46:00,
2013-08-16 05:51:00,48.0,48.0,29.65,SSE,154,0.0,3.0,100,0.00,,---,0.00,VWS V14.01,2013-08-16 09:51:00,
2013-08-16 05:56:00,48.2,48.2,29.65,SSE,154,0.0,3.0,100,0.00,,---,0.00,VWS V14.01,2013-08-16 09:56:00,
2013-08-16 06:00:00,48.5,48.5,29.64,SSE,154,1.0,3.0,100,0.00,,---,0.00,VWS V14.01,2013-08-16 10:00:00,
2013-08-16 06:01:00,48.0,48.0,29.65,SSE,154,0.0,2.0,100,0.00,,---,0.00,VWS V14.01,2013-08-16 10:01:00,
2013-08-16 06:06:00,48.0,48.0,29.65,SSE,154,0.0,2.0,100,0.00,,---,0.00,VWS V14.01,2013-08-16 10:06:00,
2013-08-16 06:11:00,47.8,47.8,29.65,SSE,154,0.0,2.0,100,0.00,,---,0.00,VWS V14.01,2013-08-16 10:11:00,
2013-08-16 06:16:00,47.8,47.8,29.65,SSE,154,1.0,2.0,100,0.00,,---,0.00,VWS V14.01,2013-08-16 10:16:00,
2013-08-16 06:21:00,47.7,47.7,29.66,SSE,154,0.0,3.0,100,0.00,,---,0.00,VWS V14.01,2013-08-16 10:21:00,
2013-08-16 06:26:00,47.6,47.6,29.66,SSE,154,0.0,3.0,100,0.00,,---,0.00,VWS V14.01,2013-08-16 10:26:00,
2013-08-16 06:30:00,47.1,47.1,29.65,SSE,154,0.0,3.0,100,0.00,,---,0.00,VWS V14.01,2013-08-16 10:30:00,
2013-08-16 06:31:00,47.3,47.3,29.66,SSE,153,0.0,1.0,100,0.00,,---,0.00,VWS V14.01,2013-08-16 10:31:00,
2013-08-16 06:36:00,47.1,47.1,29.66,SSE,153,0.0,1.0,100,0.00,,---,0.00,VWS V14.01,2013-08-16 10:36:00,
2013-08-16 06:41:00,47.0,47.0,29.66,SSE,151,1.0,2.0,100,0.00,,---,0.00,VWS V14.01,2013-08-16 10:41:00,
2013-08-16 06:46:00,46.8,46.8,29.66,SSE,151,1.0,3.0,100,0.00,,---,0.00,VWS V14.01,2013-08-16 10:46:00,
2013-08-16 06:51:00,47.0,47.0,29.66,SSE,150,0.0,3.0,100,0.00,,---,0.00,VWS V14.01,2013-08-16 10:51:00,
2013-08-16 06:56:00,46.8,46.8,29.66,SSE,150,0.0,3.0,100,0.00,,---,0.00,VWS V14.01,2013-08-16 10:56:00,
2013-08-16 07:00:00,48.0,48.0,29.65,SSE,154,1.0,3.0,100,0.00,,---,0.00,VWS V14.01,2013-08-16 11:00:00,
2013-08-16 07:01:00,47.3,47.3,29.67,SSE,151,1.0,3.0,100,0.00,,---,0.00,VWS V14.01,2013-08-16 11:01:00,
2013-08-16 07:06:00,47.7,47.7,29.67,SSE,151,1.0,4.0,100,0.00,,---,0.00,VWS V14.01,2013-08-16 11:06:00,
2013-08-16 07:11:00,48.0,48.0,29.67,SSE,152,0.0,4.0,100,0.00,,---,0.00,VWS V14.01,2013-08-16 11:11:00,
2013-08-16 07:16:00,48.0,48.0,29.66,SSE,152,0.0,4.0,100,0.00,,---,0.00,VWS V14.01,2013-08-16 11:16:00,
2013-08-16 07:21:00,48.0,48.0,29.67,SSE,152,1.0,4.0,100,0.00,,---,0.00,VWS V14.01,2013-08-16 11:21:00,
2013-08-16 07:26:00,48.3,48.3,29.67,SSE,152,0.0,4.0,100,0.00,,---,0.00,VWS V14.01,2013-08-16 11:26:00,
2013-08-16 07:30:00,47.4,47.4,29.66,SSE,154,0.0,3.0,100,0.00,,---,0.00,VWS V14.01,2013-08-16 11:30:00,
2013-08-16 07:32:00,48.2,48.2,29.67,SSE,153,0.0,2.0,100,0.00,,---,0.00,VWS V14.01,2013-08-16 11:32:00,
2013-08-16 07:37:00,48.3,48.3,29.67,SSE,153,0.0,3.0,100,0.00,,---,0.00,VWS V14.01,2013-08-16 11:37:00,
2013-08-16 07:42:00,48.5,48.5,29.67,SSE,154,1.0,3.0,100,0.00,,---,0.00,VWS V14.01,2013-08-16 11:42:00,
2013-08-16 07:47:00,48.8,48.8,29.67,SSE,153,0.0,3.0,100,0.00,,---,0.00,VWS V14.01,2013-08-16 11:47:00,
2013-08-16 07:52:00,49.2,49.2,29.67,SSE,154,0.0,3.0,100,0.00,,---,0.00,VWS V14.01,2013-08-16 11:52:00,
2013-08-16 07:57:00,49.9,49.9,29.67,SSE,154,1.0,3.0,100,0.00,,---,0.00,VWS V14.01,2013-08-16 11:57:00,
2013-08-16 08:00:00,47.1,47.1,29.67,SSE,151,0.0,3.0,100,0.00,,---,0.00,VWS V14.01,2013-08-16 12:00:00,
2013-08-16 08:02:00,50.6,50.6,29.68,SSE,154,0.0,3.0,100,0.00,,---,0.00,VWS V14.01,2013-08-16 12:02:00,
2013-08-16 08:07:00,51.2,51.2,29.68,SSE,153,0.0,3.0,100,0.00,,---,0.00,VWS V14.01,2013-08-16 12:07:00,
2013-08-16 08:12:00,51.8,51.8,29.68,SSE,155,0.0,3.0,100,0.00,,---,0.00,VWS V14.01,2013-08-16 12:12:00,
2013-08-16 08:17:00,52.3,52.3,29.68,SSE,155,0.0,3.0,100,0.00,,---,0.00,VWS V14.01,2013-08-16 12:17:00,
2013-08-16 08:22:00,52.7,52.7,29.68,SSE,155,1.0,3.0,100,0.00,,---,0.00,VWS V14.01,2013-08-16 12:22:00,
2013-08-16 08:27:00,53.2,53.2,29.68,SSE,154,1.0,3.0,100,0.00,,---,0.00,VWS V14.01,2013-08-16 12:27:00,
2013-08-16 08:30:00,48.3,48.3,29.67,SSE,153,0.0,4.0,100,0.00,,---,0.00,VWS V14.01,2013-08-16 12:30:00,
2013-08-16 08:32:00,53.9,53.9,29.68,SSE,154,0.0,1.0,100,0.00,,---,0.00,VWS V14.01,2013-08-16 12:32:00,
2013-08-16 08:37:00,54.7,54.7,29.68,SSE,155,0.0,2.0,100,0.00,,---,0.00,VWS V14.01,2013-08-16 12:37:00,
2013-08-16 08:42:00,55.6,55.6,29.68,SSE,155,0.0,2.0,100,0.00,,---,0.00,VWS V14.01,2013-08-16 12:42:00,
2013-08-16 08:47:00,56.2,56.2,29.69,SSE,155,0.0,3.0,100,0.00,,---,0.00,VWS V14.01,2013-08-16 12:47:00,
2013-08-16 08:52:00,57.0,57.0,29.69,SSE,155,1.0,3.0,100,0.00,,---,0.00,VWS V14.01,2013-08-16 12:52:00,
2013-08-16 08:57:00,57.7,57.7,29.68,SSE,155,0.0,4.0,100,0.00,,---,0.00,VWS V14.01,2013-08-16 12:57:00,
2013-08-16 09:00:00,50.2,50.2,29.67,SSE,153,0.0,3.0,100,0.00,,---,0.00,VWS V14.01,2013-08-16 13:00:00,
2013-08-16 09:02:00,58.2,58.2,29.68,SSE,155,3.0,3.0,100,0.00,,---,0.00,VWS V14.01,2013-08-16 13:02:00,
2013-08-16 09:07:00,58.8,58.8,29.68,SSE,155,2.0,3.0,100,0.00,,---,0.00,VWS V14.01,2013-08-16 13:07:00,
2013-08-16 09:12:00,59.2,58.6,29.68,SSE,155,2.0,3.0,98,0.00,,---,0.00,VWS V14.01,2013-08-16 13:12:00,
2013-08-16 09:17:00,59.9,59.0,29.69,SSE,155,2.0,4.0,97,0.00,,---,0.00,VWS V14.01,2013-08-16 13:17:00,
2013-08-16 09:22:00,60.3,58.9,29.69,SSE,154,1.0,4.0,95,0.00,,---,0.00,VWS V14.01,2013-08-16 13:22:00,
2013-08-16 09:27:00,60.8,58.5,29.69,SSE,154,0.0,4.0,92,0.00,,---,0.00,VWS V14.01,2013-08-16 13:27:00,
2013-08-16 09:30:00,53.6,53.6,29.68,SSE,152,0.0,3.0,100,0.00,,---,0.00,VWS V14.01,2013-08-16 13:30:00,
2013-08-16 09:32:00,61.4,58.8,29.69,SSE,154,1.0,2.0,91,0.00,,---,0.00,VWS V14.01,2013-08-16 13:32:00,
2013-08-16 09:37:00,62.1,58.8,29.69,SSE,154,2.0,4.0,89,0.00,,---,0.00,VWS V14.01,2013-08-16 13:37:00,
2013-08-16 09:42:00,62.7,59.7,29.69,SSE,154,2.0,4.0,90,0.00,,---,0.00,VWS V14.01,2013-08-16 13:42:00,
2013-08-16 09:47:00,63.3,60.0,29.69,SSE,154,2.0,4.0,89,0.00,,---,0.00,VWS V14.01,2013-08-16 13:47:00,
2013-08-16 09:52:00,63.5,59.6,29.69,South,190,1.0,5.0,87,0.00,,---,0.00,VWS V14.01,2013-08-16 13:52:00,
2013-08-16 09:57:00,64.0,60.1,29.69,South,190,0.0,5.0,87,0.00,,---,0.00,VWS V14.01,2013-08-16 13:57:00,
2013-08-16 10:00:00,58.0,58.0,29.69,SSE,155,2.0,4.0,100,0.00,,---,0.00,VWS V14.01,2013-08-16 14:00:00,
2013-08-16 10:02:00,64.5,60.2,29.69,South,188,4.0,5.0,86,0.00,,---,0.00,VWS V14.01,2013-08-16 14:02:00,
2013-08-16 10:07:00,64.8,59.9,29.69,SSW,205,2.0,6.0,84,0.00,,---,0.00,VWS V14.01,2013-08-16 14:07:00,
2013-08-16 10:12:00,65.2,60.2,29.69,South,186,1.0,6.0,84,0.00,,---,0.00,VWS V14.01,2013-08-16 14:12:00,
2013-08-16 10:17:00,65.7,60.4,29.69,South,175,3.0,6.0,83,0.00,,---,0.00,VWS V14.01,2013-08-16 14:17:00,
2013-08-16 10:22:00,66.2,60.5,29.69,South,186,2.0,7.0,82,0.00,,---,0.00,VWS V14.01,2013-08-16 14:22:00,
2013-08-16 10:27:00,66.5,61.2,29.69,South,186,0.0,7.0,83,0.00,,---,0.00,VWS V14.01,2013-08-16 14:27:00,
2013-08-16 10:30:00,61.0,58.7,29.69,SSE,154,2.0,4.0,92,0.00,,---,0.00,VWS V14.01,2013-08-16 14:30:00,
2013-08-16 10:33:00,67.0,61.3,29.69,SSE,168,1.0,5.0,82,0.00,,---,0.00,VWS V14.01,2013-08-16 14:33:00,
2013-08-16 10:38:00,67.7,62.7,29.69,SSE,168,1.0,5.0,84,0.00,,---,0.00,VWS V14.01,2013-08-16 14:38:00,
2013-08-16 10:43:00,68.2,62.5,29.69,SSW,209,2.0,5.0,82,0.00,,---,0.00,VWS V14.01,2013-08-16 14:43:00,
2013-08-16 10:48:00,68.7,63.0,29.69,SSW,209,1.0,5.0,82,0.00,,---,0.00,VWS V14.01,2013-08-16 14:48:00,
2013-08-16 10:53:00,69.3,63.6,29.69,SSW,209,0.0,5.0,82,0.00,,---,0.00,VWS V14.01,2013-08-16 14:53:00,
2013-08-16 10:58:00,69.7,62.9,29.69,SSW,209,0.0,5.0,79,0.00,,---,0.00,VWS V14.01,2013-08-16 14:58:00,
2013-08-16 11:00:00,64.1,60.2,29.69,South,190,4.0,5.0,87,0.00,,---,0.00,VWS V14.01,2013-08-16 15:00:00,
2013-08-16 11:03:00,70.3,64.2,29.69,SSW,209,1.0,3.0,81,0.00,,---,0.00,VWS V14.01,2013-08-16 15:03:00,
2013-08-16 11:08:00,71.0,64.2,29.69,SSW,209,0.0,3.0,79,0.00,,---,0.00,VWS V14.01,2013-08-16 15:08:00,
2013-08-16 11:13:00,71.4,64.6,29.69,SSW,209,0.0,3.0,79,0.00,,---,0.00,VWS V14.01,2013-08-16 15:13:00,
2013-08-16 11:18:00,71.7,64.5,29.69,SSW,209,2.0,4.0,78,0.00,,---,0.00,VWS V14.01,2013-08-16 15:18:00,
2013-08-16 11:23:00,71.5,63.5,29.70,SW,218,1.0,5.0,76,0.00,,---,0.00,VWS V14.01,2013-08-16 15:23:00,
2013-08-16 11:28:00,71.5,63.2,29.69,SW,233,2.0,5.0,75,0.00,,---,0.00,VWS V14.01,2013-08-16 15:28:00,
2013-08-16 11:30:00,66.7,61.7,29.69,South,180,2.0,7.0,84,0.00,,---,0.00,VWS V14.01,2013-08-16 15:30:00,
2013-08-16 11:33:00,71.4,61.9,29.69,WSW,237,2.0,6.0,72,0.00,,---,0.00,VWS V14.01,2013-08-16 15:33:00,
2013-08-16 11:38:00,71.7,61.4,29.69,WSW,237,1.0,6.0,70,0.00,,---,0.00,VWS V14.01,2013-08-16 15:38:00,
2013-08-16 11:43:00,72.2,59.8,29.69,WSW,237,1.0,6.0,65,0.00,,---,0.00,VWS V14.01,2013-08-16 15:43:00,
2013-08-16 11:48:00,72.6,58.8,29.69,NW,326,1.0,6.0,62,0.00,,---,0.00,VWS V14.01,2013-08-16 15:48:00,
2013-08-16 11:53:00,73.1,58.9,29.69,WNW,291,1.0,6.0,61,0.00,,---,0.00,VWS V14.01,2013-08-16 15:53:00,
2013-08-16 11:58:00,73.2,61.6,29.69,NE,53,2.0,6.0,67,0.00,,---,0.00,VWS V14.01,2013-08-16 15:58:00,
2013-08-16 12:00:00,69.8,63.0,29.69,SSW,209,0.0,5.0,79,0.00,,---,0.00,VWS V14.01,2013-08-16 16:00:00,
2013-08-16 12:03:00,73.4,61.4,29.70,NE,52,0.0,5.0,66,0.00,,---,0.00,VWS V14.01,2013-08-16 16:03:00,
2013-08-16 12:08:00,73.7,61.2,29.69,NNW,332,0.0,5.0,65,0.00,,---,0.00,VWS V14.01,2013-08-16 16:08:00,
2013-08-16 12:13:00,74.1,62.5,29.69,NNW,334,3.0,5.0,67,0.00,,---,0.00,VWS V14.01,2013-08-16 16:13:00,
2013-08-16 12:18:00,74.1,61.6,29.70,NW,311,3.0,5.0,65,0.00,,---,0.00,VWS V14.01,2013-08-16 16:18:00,
2013-08-16 12:23:00,74.2,61.2,29.70,NW,321,2.0,6.0,64,0.00,,---,0.00,VWS V14.01,2013-08-16 16:23:00,
2013-08-16 12:28:00,74.6,61.6,29.70,NNW,346,3.0,6.0,64,0.00,,---,0.00,VWS V14.01,2013-08-16 16:28:00,
2013-08-16 12:30:00,71.5,62.0,29.69,SW,236,2.0,5.0,72,0.00,,---,0.00,VWS V14.01,2013-08-16 16:30:00,
2013-08-16 12:33:00,74.8,60.0,29.70,NNE,24,7.0,9.0,60,0.00,,---,0.00,VWS V14.01,2013-08-16 16:33:00,
2013-08-16 12:38:00,75.1,62.1,29.70,NNE,12,6.0,9.0,64,0.00,,---,0.00,VWS V14.01,2013-08-16 16:38:00,
2013-08-16 12:43:00,75.5,62.0,29.69,North,0,3.0,9.0,63,0.00,,---,0.00,VWS V14.01,2013-08-16 16:43:00,
2013-08-16 12:48:00,75.5,62.0,29.70,WNW,296,2.0,9.0,63,0.00,,---,0.00,VWS V14.01,2013-08-16 16:48:00,
2013-08-16 12:53:00,75.3,60.0,29.69,NW,324,6.0,9.0,59,0.00,,---,0.00,VWS V14.01,2013-08-16 16:53:00,
2013-08-16 12:58:00,75.3,60.9,29.70,North,0,4.0,9.0,61,0.00,,---,0.00,VWS V14.01,2013-08-16 16:58:00,
2013-08-16 13:00:00,73.4,60.5,29.69,NE,53,2.0,6.0,64,0.00,,---,0.00,VWS V14.01,2013-08-16 17:00:00,
2013-08-16 13:03:00,75.1,60.8,29.69,NNW,340,4.0,5.0,61,0.00,,---,0.00,VWS V14.01,2013-08-16 17:03:00,
2013-08-16 13:08:00,75.1,59.8,29.70,NNW,342,1.0,5.0,59,0.00,,---,0.00,VWS V14.01,2013-08-16 17:08:00,
2013-08-16 13:13:00,75.3,60.0,29.69,NNW,342,1.0,5.0,59,0.00,,---,0.00,VWS V14.01,2013-08-16 17:13:00,
2013-08-16 13:18:00,75.5,59.7,29.69,NNE,12,2.0,7.0,58,0.00,,---,0.00,VWS V14.01,2013-08-16 17:18:00,
2013-08-16 13:23:00,75.8,61.9,29.69,NE,37,5.0,9.0,62,0.00,,---,0.00,VWS V14.01,2013-08-16 17:23:00,
2013-08-16 13:28:00,75.8,61.4,29.69,ENE,60,3.0,9.0,61,0.00,,---,0.00,VWS V14.01,2013-08-16 17:28:00,
2013-08-16 13:30:00,74.6,60.3,29.70,NNW,346,0.0,6.0,61,0.00,,---,0.00,VWS V14.01,2013-08-16 17:30:00,
2013-08-16 13:34:00,75.8,61.9,29.69,NNE,18,6.0,11.0,62,0.00,,---,0.00,VWS V14.01,2013-08-16 17:34:00,
2013-08-16 13:39:00,76.0,60.7,29.69,North,0,3.0,11.0,59,0.00,,---,0.00,VWS V14.01,2013-08-16 17:39:00,
2013-08-16 13:44:00,76.2,60.4,29.69,NNE,12,2.0,11.0,58,0.00,,---,0.00,VWS V14.01,2013-08-16 17:44:00,
2013-08-16 13:49:00,76.3,60.5,29.69,ENE,61,3.0,11.0,58,0.00,,---,0.00,VWS V14.01,2013-08-16 17:49:00,
2013-08-16 13:54:00,76.7,61.3,29.69,NW,317,6.0,11.0,59,0.00,,---,0.00,VWS V14.01,2013-08-16 17:54:00,
2013-08-16 13:59:00,76.9,61.5,29.69,NNW,333,3.0,11.0,59,0.00,,---,0.00,VWS V14.01,2013-08-16 17:59:00,
2013-08-16 14:00:00,75.3,60.5,29.70,North,0,1.0,9.0,60,0.00,,---,0.00,VWS V14.01,2013-08-16 18:00:00,
2013-08-16 14:04:00,76.7,61.8,29.69,NNW,336,4.0,7.0,60,0.00,,---,0.00,VWS V14.01,2013-08-16 18:04:00,
2013-08-16 14:09:00,76.5,61.6,29.69,NNW,336,1.0,8.0,60,0.00,,---,0.00,VWS V14.01,2013-08-16 18:09:00,
2013-08-16 14:14:00,76.4,61.0,29.69,North,2,4.0,8.0,59,0.00,,---,0.00,VWS V14.01,2013-08-16 18:14:00,
2013-08-16 14:19:00,76.3,61.9,29.68,North,5,0.0,8.0,61,0.00,,---,0.00,VWS V14.01,2013-08-16 18:19:00,
2013-08-16 14:24:00,76.9,61.0,29.68,WNW,296,2.0,8.0,58,0.00,,---,0.00,VWS V14.01,2013-08-16 18:24:00,
2013-08-16 14:29:00,76.7,60.8,29.69,NW,304,2.0,8.0,58,0.00,,---,0.00,VWS V14.01,2013-08-16 18:29:00,
2013-08-16 14:30:00,75.8,61.4,29.69,North,4,6.0,9.0,61,0.00,,---,0.00,VWS V14.01,2013-08-16 18:30:00,
2013-08-16 14:34:00,76.7,62.7,29.69,North,0,2.0,5.0,62,0.00,,---,0.00,VWS V14.01,2013-08-16 18:34:00,
2013-08-16 14:39:00,77.1,61.7,29.68,West,276,4.0,7.0,59,0.00,,---,0.00,VWS V14.01,2013-08-16 18:39:00,
2013-08-16 14:44:00,77.2,64.5,29.69,West,281,3.0,8.0,65,0.00,,---,0.00,VWS V14.01,2013-08-16 18:44:00,
2013-08-16 14:49:00,76.9,64.2,29.69,North,350,5.0,9.0,65,0.00,,---,0.00,VWS V14.01,2013-08-16 18:49:00,
2013-08-16 15:00:00,76.7,60.8,29.69,NNW,330,2.0,11.0,58,0.00,,---,0.00,VWS V14.01,2013-08-16 19:00:00,
2013-08-16 15:30:00,76.7,61.8,29.69,NW,304,1.0,8.0,60,0.00,,---,0.00,VWS V14.01,2013-08-16 19:30:00,
2013-08-16 16:00:00,76.4,62.4,29.69,NNW,344,3.0,9.0,62,0.00,,---,0.00,VWS V14.01,2013-08-16 20:00:00,
2013-08-16 16:30:00,76.3,61.4,29.69,North,0,2.0,9.0,60,0.00,,---,0.00,VWS V14.01,2013-08-16 20:30:00,
2013-08-16 17:00:00,76.0,60.2,29.68,North,3,5.0,10.0,58,0.00,,---,0.00,VWS V14.01,2013-08-16 21:00:00,
2013-08-16 17:17:00,77.6,59.7,29.69,West,277,3.0,7.0,54,0.00,,---,0.00,VWS V14.01,2013-08-16 21:17:00,
2013-08-16 17:22:00,77.8,60.4,29.69,WSW,257,3.0,7.0,55,0.00,,---,0.00,VWS V14.01,2013-08-16 21:22:00,
2013-08-16 17:27:00,77.9,60.5,29.69,North,8,3.0,7.0,55,0.00,,---,0.00,VWS V14.01,2013-08-16 21:27:00,
2013-08-16 17:30:00,76.7,61.3,29.68,SSE,158,3.0,10.0,59,0.00,,---,0.00,VWS V14.01,2013-08-16 21:30:00,
2013-08-16 17:32:00,77.8,59.3,29.69,North,355,7.0,8.0,53,0.00,,---,0.00,VWS V14.01,2013-08-16 21:32:00,
2013-08-16 17:37:00,77.6,60.2,29.69,North,357,1.0,8.0,55,0.00,,---,0.00,VWS V14.01,2013-08-16 21:37:00,
2013-08-16 17:42:00,77.6,58.1,29.69,NNW,331,2.0,8.0,51,0.00,,---,0.00,VWS V14.01,2013-08-16 21:42:00,
2013-08-16 17:47:00,77.4,59.5,29.69,North,0,3.0,8.0,54,0.00,,---,0.00,VWS V14.01,2013-08-16 21:47:00,
2013-08-16 17:52:00,76.9,60.0,29.69,NNW,340,6.0,10.0,56,0.00,,---,0.00,VWS V14.01,2013-08-16 21:52:00,
2013-08-16 17:57:00,76.3,60.9,29.69,North,3,8.0,10.0,59,0.00,,---,0.00,VWS V14.01,2013-08-16 21:57:00,
2013-08-16 18:00:00,77.8,59.8,29.68,NE,35,5.0,11.0,54,0.00,,---,0.00,VWS V14.01,2013-08-16 22:00:00,
2013-08-16 18:02:00,75.6,62.6,29.69,NNW,345,5.0,10.0,64,0.00,,---,0.00,VWS V14.01,2013-08-16 22:02:00,
2013-08-16 18:07:00,75.1,62.1,29.69,NNW,347,5.0,10.0,64,0.00,,---,0.00,VWS V14.01,2013-08-16 22:07:00,
2013-08-16 18:12:00,74.9,62.8,29.69,NNW,346,7.0,12.0,66,0.00,,---,0.00,VWS V14.01,2013-08-16 22:12:00,
2013-08-16 18:17:00,75.1,62.5,29.69,NNW,335,5.0,12.0,65,0.00,,---,0.00,VWS V14.01,2013-08-16 22:17:00,
2013-08-16 18:22:00,74.8,63.1,29.69,North,359,4.0,12.0,67,0.00,,---,0.00,VWS V14.01,2013-08-16 22:22:00,
2013-08-16 18:27:00,74.6,62.9,29.69,NNW,335,4.0,12.0,67,0.00,,---,0.00,VWS V14.01,2013-08-16 22:27:00,
2013-08-16 18:30:00,77.9,59.4,29.69,NNE,16,2.0,7.0,53,0.00,,---,0.00,VWS V14.01,2013-08-16 22:30:00,
2013-08-16 18:32:00,74.4,62.7,29.69,SSE,160,6.0,8.0,67,0.00,,---,0.00,VWS V14.01,2013-08-16 22:32:00,
2013-08-16 18:37:00,74.3,63.1,29.69,ESE,119,6.0,8.0,68,0.00,,---,0.00,VWS V14.01,2013-08-16 22:37:00,
2013-08-16 18:42:00,74.1,62.9,29.69,North,3,6.0,10.0,68,0.00,,---,0.00,VWS V14.01,2013-08-16 22:42:00,
2013-08-16 18:47:00,73.6,64.0,29.69,North,355,6.0,12.0,72,0.00,,---,0.00,VWS V14.01,2013-08-16 22:47:00,
2013-08-16 18:52:00,73.2,64.4,29.69,North,2,4.0,12.0,74,0.00,,---,0.00,VWS V14.01,2013-08-16 22:52:00,
2013-08-16 18:57:00,73.1,64.7,29.69,North,349,6.0,12.0,75,0.00,,---,0.00,VWS V14.01,2013-08-16 22:57:00,
2013-08-16 19:00:00,76.2,61.8,29.69,NNW,345,7.0,12.0,61,0.00,,---,0.00,VWS V14.01,2013-08-16 23:00:00,
2013-08-16 19:02:00,72.7,64.3,29.70,North,9,6.0,9.0,75,0.00,,---,0.00,VWS V14.01,2013-08-16 23:02:00,
2013-08-16 19:07:00,72.4,64.0,29.70,North,1,5.0,9.0,75,0.00,,---,0.00,VWS V14.01,2013-08-16 23:07:00,
2013-08-16 19:12:00,72.2,64.2,29.70,North,359,2.0,9.0,76,0.00,,---,0.00,VWS V14.01,2013-08-16 23:12:00,
2013-08-16 19:17:00,72.2,65.0,29.69,SE,142,3.0,9.0,78,0.00,,---,0.00,VWS V14.01,2013-08-16 23:17:00,
2013-08-16 19:22:00,72.2,64.2,29.69,North,2,5.0,9.0,76,0.00,,---,0.00,VWS V14.01,2013-08-16 23:22:00,
2013-08-16 19:27:00,72.0,64.4,29.69,SSE,152,4.0,9.0,77,0.00,,---,0.00,VWS V14.01,2013-08-16 23:27:00,
2013-08-16 19:30:00,74.4,63.2,29.69,NNW,348,5.0,12.0,68,0.00,,---,0.00,VWS V14.01,2013-08-16 23:30:00,
2013-08-16 19:32:00,71.7,64.5,29.69,ESE,121,2.0,5.0,78,0.00,,---,0.00,VWS V14.01,2013-08-16 23:32:00,
2013-08-16 19:37:00,71.5,64.3,29.70,North,5,2.0,5.0,78,0.00,,---,0.00,VWS V14.01,2013-08-16 23:37:00,
2013-08-16 19:42:00,71.4,64.6,29.69,North,4,3.0,5.0,79,0.00,,---,0.00,VWS V14.01,2013-08-16 23:42:00,
2013-08-16 19:47:00,71.2,64.7,29.69,North,4,3.0,5.0,80,0.00,,---,0.00,VWS V14.01,2013-08-16 23:47:00,
2013-08-16 19:52:00,70.8,64.3,29.70,North,359,1.0,5.0,80,0.00,,---,0.00,VWS V14.01,2013-08-16 23:52:00,
2013-08-16 19:57:00,70.5,64.4,29.70,NNW,345,3.0,5.0,81,0.00,,---,0.00,VWS V14.01,2013-08-16 23:57:00,
2013-08-16 20:00:00,72.9,64.5,29.70,North,1,5.0,12.0,75,0.00,,---,0.00,VWS V14.01,2013-08-17 00:00:00,
2013-08-16 20:02:00,69.8,64.4,29.70,NE,49,2.0,4.0,83,0.00,,---,0.00,VWS V14.01,2013-08-17 00:02:00,
2013-08-16 20:07:00,69.3,64.3,29.70,NE,49,3.0,5.0,84,0.00,,---,0.00,VWS V14.01,2013-08-17 00:07:00,
2013-08-16 20:12:00,68.8,63.8,29.70,NE,48,1.0,5.0,84,0.00,,---,0.00,VWS V14.01,2013-08-17 00:12:00,
2013-08-16 20:17:00,68.5,64.2,30.19,NE,48,0.0,5.0,86,0.00,,---,0.00,VWS V14.01,2013-08-17 00:17:00,
2013-08-16 20:22:00,68.0,63.7,30.20,NE,49,0.0,5.0,86,0.00,,---,0.00,VWS V14.01,2013-08-17 00:22:00,
2013-08-16 20:28:00,67.5,63.8,30.19,NE,48,0.0,5.0,88,0.00,,---,0.00,VWS V14.01,2013-08-17 00:28:00,
2013-08-16 20:30:00,71.9,64.3,29.69,SSE,150,3.0,9.0,77,0.00,,---,0.00,VWS V14.01,2013-08-17 00:30:00,
2013-08-16 20:33:00,66.7,63.0,30.19,NE,48,0.0,1.0,88,0.00,,---,0.00,VWS V14.01,2013-08-17 00:33:00,
2013-08-16 20:38:00,66.2,63.2,30.19,NE,48,0.0,1.0,90,0.00,,---,0.00,VWS V14.01,2013-08-17 00:38:00,
2013-08-16 20:43:00,65.7,63.0,30.19,NE,48,0.0,1.0,91,0.00,,---,0.00,VWS V14.01,2013-08-17 00:43:00,
2013-08-16 20:48:00,65.3,63.2,30.20,NE,48,0.0,1.0,93,0.00,,---,0.00,VWS V14.01,2013-08-17 00:48:00,
2013-08-16 20:53:00,64.8,63.0,30.20,NE,46,0.0,1.0,94,0.00,,---,0.00,VWS V14.01,2013-08-17 00:53:00,
2013-08-16 20:58:00,64.3,62.8,30.19,NE,48,0.0,1.0,95,0.00,,---,0.00,VWS V14.01,2013-08-17 00:58:00,
2013-08-16 21:00:00,70.2,64.4,29.70,NE,49,3.0,5.0,82,0.00,,---,0.00,VWS V14.01,2013-08-17 01:00:00,
2013-08-16 21:03:00,63.8,62.3,30.19,NE,48,0.0,0.0,95,0.00,,---,0.00,VWS V14.01,2013-08-17 01:03:00,
2013-08-16 21:08:00,63.5,62.0,30.19,NE,48,0.0,0.0,95,0.00,,---,0.00,VWS V14.01,2013-08-17 01:08:00,
2013-08-16 21:13:00,63.0,61.8,30.20,NE,48,0.0,0.0,96,0.00,,---,0.00,VWS V14.01,2013-08-17 01:13:00,
2013-08-16 21:18:00,62.4,61.5,30.20,NE,47,0.0,0.0,97,0.00,,---,0.00,VWS V14.01,2013-08-17 01:18:00,
2013-08-16 21:23:00,62.1,61.2,30.20,NE,41,0.0,0.0,97,0.00,,---,0.00,VWS V14.01,2013-08-17 01:23:00,
2013-08-16 21:28:00,61.6,60.7,30.20,NE,41,0.0,0.0,97,0.00,,---,0.00,VWS V14.01,2013-08-17 01:28:00,
2013-08-16 21:30:00,67.4,63.7,30.19,NE,48,0.0,5.0,88,0.00,,---,0.00,VWS V14.01,2013-08-17 01:30:00,
2013-08-16 21:33:00,61.3,60.4,30.20,NE,43,0.0,0.0,97,0.00,,---,0.00,VWS V14.01,2013-08-17 01:33:00,
2013-08-16 21:38:00,61.0,60.2,30.20,NE,45,0.0,0.0,97,0.00,,---,0.00,VWS V14.01,2013-08-17 01:38:00,
2013-08-16 21:43:00,60.8,60.2,30.20,NE,47,0.0,0.0,98,0.00,,---,0.00,VWS V14.01,2013-08-17 01:43:00,
2013-08-16 21:48:00,60.7,60.4,30.20,NE,48,0.0,0.0,99,0.00,,---,0.00,VWS V14.01,2013-08-17 01:48:00,
2013-08-16 21:53:00,60.5,59.9,30.20,NE,48,0.0,0.0,98,0.00,,---,0.00,VWS V14.01,2013-08-17 01:53:00,
2013-08-16 21:58:00,60.2,59.6,30.20,NE,48,0.0,0.0,98,0.00,,---,0.00,VWS V14.01,2013-08-17 01:58:00,
2013-08-16 22:00:00,64.2,62.7,30.19,NE,48,0.0,1.0,95,0.00,,---,0.00,VWS V14.01,2013-08-17 02:00:00,
2013-08-16 22:03:00,59.7,59.1,30.20,NE,48,0.0,0.0,98,0.00,,---,0.00,VWS V14.01,2013-08-17 02:03:00,
2013-08-16 22:08:00,59.4,59.1,30.20,NE,48,0.0,0.0,99,0.00,,---,0.00,VWS V14.01,2013-08-17 02:08:00,
2013-08-16 22:13:00,58.9,58.6,30.20,NE,48,0.0,0.0,99,0.00,,---,0.00,VWS V14.01,2013-08-17 02:13:00,
2013-08-16 22:18:00,58.6,58.6,30.20,NE,48,0.0,0.0,100,0.00,,---,0.00,VWS V14.01,2013-08-17 02:18:00,
2013-08-16 22:23:00,58.6,58.6,30.20,NE,48,0.0,0.0,100,0.00,,---,0.00,VWS V14.01,2013-08-17 02:23:00,
2013-08-16 22:28:00,58.7,58.7,30.20,NE,48,0.0,0.0,100,0.00,,---,0.00,VWS V14.01,2013-08-17 02:28:00,
2013-08-16 22:30:00,61.4,60.5,30.20,NE,43,0.0,0.0,97,0.00,,---,0.00,VWS V14.01,2013-08-17 02:30:00,
2013-08-16 22:33:00,58.3,58.3,30.20,NE,48,0.0,0.0,100,0.00,,---,0.00,VWS V14.01,2013-08-17 02:33:00,
2013-08-16 22:38:00,58.3,58.3,30.20,NE,48,0.0,0.0,100,0.00,,---,0.00,VWS V14.01,2013-08-17 02:38:00,
2013-08-16 22:43:00,58.3,58.3,30.20,NE,48,0.0,0.0,100,0.00,,---,0.00,VWS V14.01,2013-08-17 02:43:00,
2013-08-16 22:48:00,58.2,58.2,30.20,NE,48,0.0,0.0,100,0.00,,---,0.00,VWS V14.01,2013-08-17 02:48:00,
2013-08-16 22:53:00,57.7,57.7,30.20,NE,48,0.0,0.0,100,0.00,,---,0.00,VWS V14.01,2013-08-17 02:53:00,
2013-08-16 22:58:00,57.4,57.4,30.21,NE,48,0.0,0.0,100,0.00,,---,0.00,VWS V14.01,2013-08-17 02:58:00,
2013-08-16 23:00:00,60.0,59.4,30.20,NE,48,0.0,0.0,98,0.00,,---,0.00,VWS V14.01,2013-08-17 03:00:00,
2013-08-16 23:03:00,57.1,57.1,30.21,NE,48,0.0,0.0,100,0.00,,---,0.00,VWS V14.01,2013-08-17 03:03:00,
2013-08-16 23:08:00,57.3,57.3,30.21,NE,48,0.0,0.0,100,0.00,,---,0.00,VWS V14.01,2013-08-17 03:08:00,
2013-08-16 23:13:00,57.6,57.6,30.21,NE,48,0.0,0.0,100,0.00,,---,0.00,VWS V14.01,2013-08-17 03:13:00,
2013-08-16 23:18:00,57.4,57.4,30.21,NE,48,0.0,0.0,100,0.00,,---,0.00,VWS V14.01,2013-08-17 03:18:00,
2013-08-16 23:23:00,57.4,57.4,30.21,NE,48,0.0,0.0,100,0.00,,---,0.00,VWS V14.01,2013-08-17 03:23:00,
2013-08-16 23:28:00,57.4,57.4,30.21,NE,48,0.0,0.0,100,0.00,,---,0.00,VWS V14.01,2013-08-17 03:28:00,
2013-08-16 23:30:00,58.6,58.6,30.20,NE,48,0.0,0.0,100,0.00,,---,0.00,VWS V14.01,2013-08-17 03:30:00,
2013-08-16 23:33:00,57.0,57.0,30.21,NE,48,0.0,0.0,100,0.00,,---,0.00,VWS V14.01,2013-08-17 03:33:00,
2013-08-16 23:38:00,57.0,57.0,30.20,NE,48,0.0,0.0,100,0.00,,---,0.00,VWS V14.01,2013-08-17 03:38:00,
2013-08-16 23:44:00,57.0,57.0,30.21,NE,48,0.0,0.0,100,0.00,,---,0.00,VWS V14.01,2013-08-17 03:44:00,
2013-08-16 23:49:00,57.0,57.0,30.21,NE,48,0.0,0.0,100,0.00,,---,0.00,VWS V14.01,2013-08-17 03:49:00,
2013-08-16 23:54:00,56.8,56.8,30.21,NE,48,0.0,0.0,100,0.00,,---,0.00,VWS V14.01,2013-08-17 03:54:00,
2013-08-16 23:59:00,56.7,56.7,30.21,NE,48,0.0,0.0,100,0.00,,---,0.00,VWS V14.01,2013-08-17 03:59:00,